MST,Max TemperatureF,Mean TemperatureF,Min TemperatureF,Max Dew PointF,MeanDew PointF,Min DewpointF,Max Humidity, Mean Humidity, Min Humidity, Max Sea Level PressureIn, Mean Sea Level PressureIn, Min Sea Level PressureIn, Max VisibilityMiles, Mean VisibilityMiles, Min VisibilityMiles, Max Wind SpeedMPH, Mean Wind SpeedMPH, Max Gust SpeedMPH,PrecipitationIn, CloudCover, Events, WindDirDegrees
2012-11-1,72,57,42,36,30,24,61,40,18,30.03,29.92,29.80,10,10,10,20,9,24,0.00,0,,225
2012-11-2,57,47,37,37,33,29,76,57,38,30.15,29.97,29.79,10,10,10,26,12,33,0.00,0,,302
2012-11-3,61,48,35,32,30,27,76,54,32,30.20,30.14,30.07,10,10,10,22,9,28,0.00,0,,230
2012-11-4,65,51,37,34,29,22,82,52,21,30.24,30.15,30.08,10,10,10,26,13,33,0.00,2,,301
2012-11-5,61,48,34,34,32,30,89,61,32,30.26,30.15,30.03,10,10,10,15,10,20,0.00,1,,275
2012-11-6,63,49,35,33,31,29,76,54,32,30.25,30.17,30.11,10,10,10,15,7,17,0.00,0,,262
2012-11-7,75,58,41,31,27,21,62,38,13,30.09,29.93,29.80,10,10,10,16,11,21,0.00,0,,214
2012-11-8,59,47,34,32,30,25,70,53,36,29.94,29.85,29.78,10,10,10,21,14,25,0.00,0,,53
2012-11-9,60,45,30,33,30,27,92,63,33,29.78,29.65,29.46,10,10,10,22,10,30,0.00,0,,126
2012-11-10,54,36,18,36,28,14,100,71,41,29.93,29.60,29.39,10,4,0,30,17,46,0.13,6,Fog-Rain-Snow-Thunderstorm,359
2012-11-11,24,17,10,15,10,6,88,75,62,30.34,30.12,29.89,10,10,10,18,8,23,0.00,2,,287
2012-11-12,44,28,11,18,11,3,67,45,22,30.44,30.37,30.30,10,10,10,15,9,18,0.00,0,,219
2012-11-13,50,37,23,26,21,13,75,57,39,30.36,30.27,30.19,10,10,7,22,9,28,0.00,1,,317
2012-11-14,54,42,29,30,25,21,75,52,28,30.29,30.21,30.10,10,10,10,20,10,25,0.00,1,,219
2012-11-15,49,41,32,32,25,21,89,62,34,30.42,30.35,30.20,10,10,10,17,11,25,0.00,2,,52
2012-11-16,60,47,33,26,23,21,69,47,24,30.33,30.17,30.01,10,10,10,22,14,25,T,0,Rain,185
2012-11-17,62,47,32,31,28,25,82,55,27,30.12,30.05,29.97,10,10,8,18,11,23,0.00,0,,194
2012-11-18,64,47,29,31,27,24,85,54,23,30.06,29.97,29.88,10,10,10,22,10,26,0.00,0,,274
2012-11-19,60,47,33,28,25,22,64,45,26,30.25,30.16,30.03,10,10,10,15,8,16,0.00,1,,254
2012-11-20,68,50,31,24,21,15,72,43,14,30.24,30.13,29.98,10,10,10,17,10,21,0.00,0,,220
2012-11-21,69,53,36,24,19,15,54,33,12,30.01,29.88,29.78,10,10,10,18,11,21,0.00,0,,252
2012-11-22,50,38,25,29,17,11,55,40,25,30.53,30.15,29.79,10,10,10,33,15,41,0.00,0,,343
2012-11-23,51,34,17,15,12,9,67,42,17,30.61,30.47,30.21,10,10,10,17,7,23,0.00,0,,223
2012-11-24,69,51,32,20,15,9,54,32,9,30.18,29.99,29.87,10,10,10,21,12,25,0.00,0,,264
2012-11-25,58,43,27,26,21,15,72,47,22,29.98,29.91,29.77,10,10,10,24,11,29,0.00,0,,133
2012-11-26,32,25,18,23,20,16,92,78,63,30.44,30.31,30.02,10,10,4,18,8,24,T,5,Snow,77
2012-11-27,57,39,21,24,16,8,84,50,16,30.29,30.23,30.12,10,10,9,20,12,23,0.00,0,,214
2012-11-28,61,43,25,20,16,7,69,42,15,30.26,30.15,30.03,10,10,10,16,9,17,0.00,0,,245
2012-11-29,64,47,29,22,15,9,58,36,14,30.05,30.00,29.92,10,10,10,18,10,22,0.00,0,,266
2012-11-30,63,47,30,24,18,8,63,38,12,30.04,29.91,29.75,10,10,10,16,8,23,0.00,0,,173